Time;durP1;ratioP1;P1;durP2;ratioP2;P2;SDS_P1;SDS_P2;PMS_P1;PMS_P2;Temp;Humidity;BMP_temperature;BMP_pressure;BME280_temperature;BME280_humidity;BME280_pressure;Samples;Min_cycle;Max_cycle;Signal;HPM_P1;HPM_P2
2024/04/25 00:00:18;;;;;;;22.23;9.35;;;;;;;;;;5286077;27;20013;-67
2024/04/25 00:02:43;;;;;;;19.45;10.20;;;;;;;;;;5280125;27;20010;-66
2024/04/25 00:05:08;;;;;;;22.48;10.25;;;;;;;;;;5283797;27;19994;-66
2024/04/25 00:07:34;;;;;;;18.83;9.35;;;;;;;;;;5310669;27;20034;-66
2024/04/25 00:09:59;;;;;;;24.20;10.50;;;;;;;;;;5313489;26;19997;-67
2024/04/25 00:12:24;;;;;;;18.38;7.57;;;;;;;;;;5303516;27;20327;-67
2024/04/25 00:14:49;;;;;;;15.15;7.20;;;;;;;;;;5313619;26;20006;-66
2024/04/25 00:17:16;;;;;;;17.92;8.27;;;;;;;;;;5313613;26;20355;-67
2024/04/25 00:19:41;;;;;;;20.17;9.38;;;;;;;;;;5313624;26;20038;-66
2024/04/25 00:22:07;;;;;;;18.15;8.38;;;;;;;;;;5313566;26;19993;-66
2024/04/25 00:24:32;;;;;;;12.88;7.80;;;;;;;;;;5313985;26;20012;-67
2024/04/25 00:26:57;;;;;;;18.23;8.57;;;;;;;;;;5312749;26;20443;-66
2024/04/25 00:29:23;;;;;;;21.65;8.73;;;;;;;;;;5313841;26;20327;-66
2024/04/25 00:31:48;;;;;;;18.50;7.07;;;;;;;;;;5313844;26;19994;-66
2024/04/25 00:34:13;;;;;;;14.60;7.60;;;;;;;;;;5303015;26;20033;-67
2024/04/25 00:36:38;;;;;;;18.90;8.38;;;;;;;;;;5313321;26;20097;-66
2024/04/25 00:39:04;;;;;;;15.88;7.47;;;;;;;;;;5310406;26;20037;-66
2024/04/25 00:41:29;;;;;;;22.08;9.30;;;;;;;;;;5282801;26;20013;-67
2024/04/25 00:43:54;;;;;;;19.05;9.27;;;;;;;;;;5279199;27;20013;-67
2024/04/25 00:46:23;;;;;;;22.15;8.82;;;;;;;;;;5293430;27;20035;-67
2024/04/25 00:48:48;;;;;;;20.02;9.13;;;;;;;;;;5289129;27;20109;-67
2024/04/25 00:51:14;;;;;;;19.92;8.32;;;;;;;;;;5284543;26;20030;-66
2024/04/25 00:53:40;;;;;;;13.50;6.93;;;;;;;;;;5277089;27;20013;-67
2024/04/25 00:56:06;;;;;;;12.82;7.65;;;;;;;;;;5279313;27;19995;-67
2024/04/25 00:58:33;;;;;;;14.02;7.32;;;;;;;;;;5297255;27;20459;-67
2024/04/25 01:00:59;;;;;;;16.58;8.15;;;;;;;;;;5312695;26;20009;-66
2024/04/25 01:03:24;;;;;;;17.25;8.55;;;;;;;;;;5303466;27;20305;-67
2024/04/25 01:05:51;;;;;;;17.75;8.02;;;;;;;;;;5312133;27;19997;-67
2024/04/25 01:08:16;;;;;;;19.92;7.60;;;;;;;;;;5313705;26;20030;-67
2024/04/25 01:10:42;;;;;;;15.52;7.72;;;;;;;;;;5313690;26;19994;-67
2024/04/25 01:13:07;;;;;;;14.60;7.50;;;;;;;;;;5312955;26;19994;-67
2024/04/25 01:15:32;;;;;;;15.35;6.63;;;;;;;;;;5313609;26;20077;-67
2024/04/25 01:18:01;;;;;;;14.43;6.15;;;;;;;;;;5313515;26;20008;-67
2024/04/25 01:20:26;;;;;;;16.58;6.70;;;;;;;;;;5313495;26;20009;-67
2024/04/25 01:22:53;;;;;;;15.35;7.32;;;;;;;;;;5312912;26;20014;-67
2024/04/25 01:25:19;;;;;;;14.60;7.90;;;;;;;;;;5313470;26;20084;-67
2024/04/25 01:27:44;;;;;;;15.10;7.85;;;;;;;;;;5313500;26;20455;-67
2024/04/25 01:30:10;;;;;;;17.50;8.30;;;;;;;;;;5313256;26;20069;-67
2024/04/25 01:32:36;;;;;;;16.02;7.68;;;;;;;;;;5311649;27;19997;-67
2024/04/25 01:35:04;;;;;;;17.85;7.85;;;;;;;;;;5311525;27;20467;-67
2024/04/25 01:37:30;;;;;;;21.83;10.57;;;;;;;;;;5310973;27;20463;-67
2024/04/25 01:39:55;;;;;;;19.05;8.77;;;;;;;;;;5313211;27;20013;-67
2024/04/25 01:42:20;;;;;;;21.73;10.93;;;;;;;;;;5312274;26;20002;-67
2024/04/25 01:44:46;;;;;;;25.55;9.77;;;;;;;;;;5313272;26;20364;-67
2024/04/25 01:47:11;;;;;;;19.95;8.93;;;;;;;;;;5313176;26;20347;-67
2024/04/25 01:49:36;;;;;;;25.42;11.20;;;;;;;;;;5312352;26;19998;-67
2024/04/25 01:52:01;;;;;;;18.42;9.00;;;;;;;;;;5313050;26;20018;-67
2024/04/25 01:54:27;;;;;;;22.65;9.85;;;;;;;;;;5313114;26;20001;-67
2024/04/25 01:56:52;;;;;;;24.05;10.27;;;;;;;;;;5312928;26;20008;-67
2024/04/25 01:59:18;;;;;;;23.15;9.57;;;;;;;;;;5312962;27;19998;-67
2024/04/25 02:01:43;;;;;;;20.35;9.63;;;;;;;;;;5312896;26;19998;-67
2024/04/25 02:04:08;;;;;;;23.15;9.27;;;;;;;;;;5312472;26;20002;-67
2024/04/25 02:06:34;;;;;;;17.30;8.20;;;;;;;;;;5312963;27;20012;-67
2024/04/25 02:08:59;;;;;;;17.40;9.40;;;;;;;;;;5313012;26;20343;-67
2024/04/25 02:11:24;;;;;;;20.17;9.50;;;;;;;;;;5312983;26;20487;-67
2024/04/25 02:13:49;;;;;;;21.20;8.32;;;;;;;;;;5312800;26;19997;-67
2024/04/25 02:16:15;;;;;;;22.30;9.82;;;;;;;;;;5312299;26;20009;-67
2024/04/25 02:18:40;;;;;;;17.90;8.20;;;;;;;;;;5312862;26;20012;-67
2024/04/25 02:26:33;;;;;;;20.75;8.77;;;;;;;;;;5313542;27;20344;-67
2024/04/25 02:28:58;;;;;;;21.30;9.80;;;;;;;;;;5311939;26;19997;-67
2024/04/25 02:31:31;;;;;;;21.17;8.27;;;;;;;;;;5312596;26;20042;-67
2024/04/25 02:33:56;;;;;;;14.82;7.45;;;;;;;;;;5301466;26;20000;-67
2024/04/25 02:36:21;;;;;;;17.88;9.73;;;;;;;;;;5282944;26;20010;-67
2024/04/25 02:38:46;;;;;;;16.85;8.35;;;;;;;;;;5290551;27;20097;-67
2024/04/25 02:41:12;;;;;;;14.93;7.70;;;;;;;;;;5312238;26;20380;-66
2024/04/25 02:43:37;;;;;;;16.48;7.30;;;;;;;;;;5311445;26;20033;-66
2024/04/25 02:46:02;;;;;;;16.98;8.73;;;;;;;;;;5312514;26;20089;-67
2024/04/25 02:48:28;;;;;;;15.90;7.68;;;;;;;;;;5312267;26;20013;-67
2024/04/25 02:50:53;;;;;;;18.23;9.40;;;;;;;;;;5310652;27;19998;-67
2024/04/25 02:53:20;;;;;;;19.48;8.48;;;;;;;;;;5311661;26;20012;-67
2024/04/25 02:55:45;;;;;;;16.35;7.70;;;;;;;;;;5315230;26;20017;-67
2024/04/25 02:58:10;;;;;;;18.02;6.93;;;;;;;;;;5283988;26;20471;-66
2024/04/25 03:00:35;;;;;;;12.73;6.68;;;;;;;;;;5280239;27;20475;-67
2024/04/25 03:03:01;;;;;;;17.48;6.75;;;;;;;;;;5281172;27;20002;-67
2024/04/25 03:05:26;;;;;;;11.20;6.95;;;;;;;;;;5306928;27;20008;-67
2024/04/25 03:07:51;;;;;;;14.23;7.63;;;;;;;;;;5314810;26;19997;-67
2024/04/25 03:10:17;;;;;;;16.13;7.57;;;;;;;;;;5314462;26;20185;-67
2024/04/25 03:12:42;;;;;;;15.10;6.72;;;;;;;;;;5315129;26;19998;-67
2024/04/25 03:15:07;;;;;;;15.15;6.72;;;;;;;;;;5315017;26;20352;-67
2024/04/25 03:17:32;;;;;;;19.70;9.27;;;;;;;;;;5314418;26;20004;-67
2024/04/25 03:19:58;;;;;;;17.05;7.38;;;;;;;;;;5314562;26;20038;-67
2024/04/25 03:22:23;;;;;;;14.43;7.03;;;;;;;;;;5314953;26;20444;-66
2024/04/25 03:24:48;;;;;;;14.10;7.45;;;;;;;;;;5314847;26;20001;-67
2024/04/25 03:27:14;;;;;;;18.50;7.45;;;;;;;;;;5314564;26;19994;-67
2024/04/25 03:29:39;;;;;;;15.75;8.68;;;;;;;;;;5314543;26;20009;-67
2024/04/25 03:32:05;;;;;;;18.00;8.02;;;;;;;;;;5314954;26;19994;-67
2024/04/25 03:34:31;;;;;;;21.42;9.25;;;;;;;;;;5303921;26;19998;-66
2024/04/25 03:36:57;;;;;;;21.73;8.30;;;;;;;;;;5314650;26;20002;-66
2024/04/25 03:39:23;;;;;;;23.35;9.63;;;;;;;;;;5314170;26;20001;-66
2024/04/25 03:41:48;;;;;;;17.75;8.52;;;;;;;;;;5314701;26;19997;-67
2024/04/25 03:44:14;;;;;;;15.05;7.45;;;;;;;;;;5314250;26;20097;-67
2024/04/25 03:46:39;;;;;;;20.10;9.40;;;;;;;;;;5314949;26;20071;-67
2024/04/25 03:49:04;;;;;;;21.73;8.55;;;;;;;;;;5314317;26;20002;-67
2024/04/25 03:51:29;;;;;;;16.15;8.40;;;;;;;;;;5314451;26;19997;-67
2024/04/25 03:53:55;;;;;;;21.35;10.43;;;;;;;;;;5313252;26;20005;-66
2024/04/25 03:56:20;;;;;;;15.93;9.25;;;;;;;;;;5313766;27;20001;-67
2024/04/25 03:58:45;;;;;;;18.30;8.73;;;;;;;;;;5314155;26;19998;-67
2024/04/25 04:01:12;;;;;;;17.05;7.38;;;;;;;;;;5313768;26;20487;-66
2024/04/25 04:03:37;;;;;;;19.75;8.85;;;;;;;;;;5312648;26;20009;-67
2024/04/25 04:06:03;;;;;;;17.58;7.35;;;;;;;;;;5313213;26;20427;-67
2024/04/25 04:08:28;;;;;;;19.80;8.77;;;;;;;;;;5313833;26;20075;-67
2024/04/25 04:10:53;;;;;;;19.15;7.80;;;;;;;;;;5313341;26;20016;-66
2024/04/25 04:13:19;;;;;;;17.05;7.15;;;;;;;;;;5313183;26;20005;-67
2024/04/25 04:15:44;;;;;;;17.63;7.88;;;;;;;;;;5313588;26;20013;-66
2024/04/25 04:18:09;;;;;;;15.18;7.03;;;;;;;;;;5313750;26;20010;-66
2024/04/25 04:20:35;;;;;;;15.55;6.32;;;;;;;;;;5307986;26;19994;-65
2024/04/25 04:23:00;;;;;;;16.98;8.80;;;;;;;;;;5313480;26;20428;-66
2024/04/25 04:25:26;;;;;;;15.55;7.70;;;;;;;;;;5313385;26;20451;-66
2024/04/25 04:27:51;;;;;;;18.60;8.73;;;;;;;;;;5313476;26;20001;-66
2024/04/25 04:30:16;;;;;;;16.25;8.75;;;;;;;;;;5313567;27;19998;-67
2024/04/25 04:32:42;;;;;;;15.95;8.52;;;;;;;;;;5313610;26;20344;-67
2024/04/25 04:35:07;;;;;;;18.50;8.23;;;;;;;;;;5299747;26;20012;-67
2024/04/25 04:37:32;;;;;;;22.58;8.38;;;;;;;;;;5313130;26;20082;-66
2024/04/25 04:39:58;;;;;;;19.83;9.18;;;;;;;;;;5313305;26;20336;-67
2024/04/25 04:42:23;;;;;;;25.90;9.63;;;;;;;;;;5313475;27;20075;-66
2024/04/25 04:44:48;;;;;;;22.58;9.05;;;;;;;;;;5313612;26;19997;-67
2024/04/25 04:47:14;;;;;;;15.77;8.65;;;;;;;;;;5313318;26;20419;-67
2024/04/25 04:49:39;;;;;;;18.25;8.23;;;;;;;;;;5301373;26;20048;-67
2024/04/25 04:52:05;;;;;;;13.02;7.03;;;;;;;;;;5302450;26;20020;-66
2024/04/25 04:54:30;;;;;;;15.82;7.63;;;;;;;;;;5311187;27;20009;-66
2024/04/25 04:56:55;;;;;;;17.75;7.82;;;;;;;;;;5312584;26;19998;-66
2024/04/25 04:59:21;;;;;;;15.27;6.57;;;;;;;;;;5313313;26;20012;-67
2024/04/25 05:01:46;;;;;;;15.70;7.28;;;;;;;;;;5301091;26;20432;-66
2024/04/25 05:04:11;;;;;;;16.05;8.00;;;;;;;;;;5293679;27;20526;-67
2024/04/25 05:06:37;;;;;;;14.38;7.47;;;;;;;;;;5312962;26;20008;-67
2024/04/25 05:09:04;;;;;;;19.42;8.80;;;;;;;;;;5312758;26;20000;-66
2024/04/25 05:11:30;;;;;;;19.13;9.10;;;;;;;;;;5312513;26;20001;-66
2024/04/25 05:13:56;;;;;;;17.33;8.30;;;;;;;;;;5313060;26;19993;-66
2024/04/25 05:16:21;;;;;;;16.83;7.72;;;;;;;;;;5311612;26;19994;-67
2024/04/25 05:18:46;;;;;;;14.02;7.07;;;;;;;;;;5312515;26;19998;-67
2024/04/25 05:21:12;;;;;;;15.73;7.97;;;;;;;;;;5300829;26;20467;-66
2024/04/25 05:23:37;;;;;;;17.80;8.48;;;;;;;;;;5278977;27;20013;-67
2024/04/25 05:26:02;;;;;;;16.00;7.40;;;;;;;;;;5279146;27;20085;-67
2024/04/25 05:28:28;;;;;;;20.45;8.52;;;;;;;;;;5279262;27;20072;-67
2024/04/25 05:30:53;;;;;;;20.02;9.48;;;;;;;;;;5278197;27;20337;-67
2024/04/25 05:33:18;;;;;;;22.45;10.13;;;;;;;;;;5279353;27;19999;-67
2024/04/25 05:35:44;;;;;;;18.55;8.82;;;;;;;;;;5312564;27;20010;-67
2024/04/25 05:38:09;;;;;;;20.13;8.52;;;;;;;;;;5311912;26;20037;-67
2024/04/25 05:40:35;;;;;;;19.92;9.50;;;;;;;;;;5312527;26;19997;-67
2024/04/25 05:43:00;;;;;;;22.85;10.63;;;;;;;;;;5312110;26;20426;-67
2024/04/25 05:45:25;;;;;;;26.60;10.95;;;;;;;;;;5312756;27;20027;-67
2024/04/25 05:47:51;;;;;;;25.13;10.68;;;;;;;;;;5312561;26;19997;-67
2024/04/25 05:50:16;;;;;;;23.48;10.80;;;;;;;;;;5312100;26;20002;-67
2024/04/25 05:52:41;;;;;;;23.17;11.02;;;;;;;;;;5311765;27;20016;-67
2024/04/25 05:55:10;;;;;;;21.23;9.00;;;;;;;;;;5312181;27;20325;-67
2024/04/25 05:57:35;;;;;;;25.92;12.15;;;;;;;;;;5312095;26;20339;-67
2024/04/25 06:00:00;;;;;;;24.20;11.30;;;;;;;;;;5312382;27;20001;-67
2024/04/25 06:02:25;;;;;;;38.20;13.20;;;;;;;;;;5311604;27;20002;-67
2024/04/25 06:04:52;;;;;;;35.13;12.70;;;;;;;;;;5289794;26;19994;-67
2024/04/25 06:07:17;;;;;;;30.08;13.18;;;;;;;;;;5304974;27;20069;-67
2024/04/25 06:09:42;;;;;;;32.72;12.80;;;;;;;;;;5277908;27;20010;-67
2024/04/25 06:12:08;;;;;;;27.67;12.45;;;;;;;;;;5277822;27;20009;-67
2024/04/25 06:14:33;;;;;;;34.33;13.70;;;;;;;;;;5278335;27;19994;-67
2024/04/25 06:16:58;;;;;;;31.88;13.35;;;;;;;;;;5278085;27;20061;-67
2024/04/25 06:19:24;;;;;;;34.20;14.32;;;;;;;;;;5281651;27;20004;-67
2024/04/25 06:21:49;;;;;;;34.78;15.30;;;;;;;;;;5304739;27;19997;-67
2024/04/25 06:24:14;;;;;;;36.38;15.88;;;;;;;;;;5311645;27;20459;-67
2024/04/25 06:26:40;;;;;;;36.90;17.08;;;;;;;;;;5311944;27;19998;-67
2024/04/25 06:29:05;;;;;;;36.22;14.68;;;;;;;;;;5311693;26;20026;-67
2024/04/25 06:31:31;;;;;;;38.00;15.40;;;;;;;;;;5311469;27;20004;-67
2024/04/25 06:34:01;;;;;;;37.10;16.30;;;;;;;;;;5312223;27;20358;-68
2024/04/25 06:36:31;;;;;;;37.30;15.52;;;;;;;;;;5311741;27;20012;-67
2024/04/25 06:38:57;;;;;;;36.72;15.65;;;;;;;;;;5311609;27;20008;-68
2024/04/25 06:41:22;;;;;;;45.83;18.27;;;;;;;;;;5311812;26;19997;-67
2024/04/25 06:43:47;;;;;;;38.15;17.40;;;;;;;;;;5309498;27;20001;-67
2024/04/25 06:46:13;;;;;;;43.33;18.90;;;;;;;;;;5311700;27;20002;-67
2024/04/25 06:48:39;;;;;;;39.80;18.17;;;;;;;;;;5311489;27;20463;-67
2024/04/25 06:51:05;;;;;;;40.42;18.65;;;;;;;;;;5308197;26;20009;-66
2024/04/25 06:53:30;;;;;;;40.15;16.83;;;;;;;;;;5329315;21;19998;-68
2024/04/25 06:55:56;;;;;;;37.88;16.60;;;;;;;;;;5311408;26;20359;-68
2024/04/25 06:58:22;;;;;;;34.40;15.98;;;;;;;;;;5310297;27;19993;-68
2024/04/25 07:00:47;;;;;;;35.20;16.17;;;;;;;;;;5312105;26;19998;-68
2024/04/25 07:03:13;;;;;;;42.90;18.52;;;;;;;;;;5285422;26;20010;-68
2024/04/25 07:05:38;;;;;;;42.63;15.75;;;;;;;;;;5253793;27;20014;-68
2024/04/25 07:08:04;;;;;;;34.60;17.08;;;;;;;;;;5243233;27;20442;-67
2024/04/25 07:10:29;;;;;;;43.47;18.38;;;;;;;;;;5269554;27;19999;-68
2024/04/25 07:12:54;;;;;;;43.65;18.88;;;;;;;;;;5244004;27;20461;-67
2024/04/25 07:15:24;;;;;;;46.05;20.60;;;;;;;;;;5243961;27;19999;-67
2024/04/25 07:17:49;;;;;;;36.05;17.30;;;;;;;;;;5270264;27;19996;-67
2024/04/25 07:20:14;;;;;;;36.45;18.90;;;;;;;;;;5251854;27;20006;-67
2024/04/25 07:22:40;;;;;;;32.38;16.58;;;;;;;;;;5277060;27;20464;-67
2024/04/25 07:25:08;;;;;;;31.65;15.00;;;;;;;;;;5277231;27;20005;-67
2024/04/25 07:27:34;;;;;;;34.13;16.52;;;;;;;;;;5277482;27;19999;-67
2024/04/25 07:30:00;;;;;;;27.02;14.00;;;;;;;;;;5276833;27;20006;-67
2024/04/25 07:32:26;;;;;;;26.63;13.38;;;;;;;;;;5303859;26;19995;-67
2024/04/25 07:34:51;;;;;;;27.63;13.93;;;;;;;;;;5277345;27;20009;-67
2024/04/25 07:37:16;;;;;;;25.00;12.90;;;;;;;;;;5277353;27;20068;-68
2024/04/25 07:39:41;;;;;;;27.33;13.35;;;;;;;;;;5277749;27;20005;-67
2024/04/25 07:42:09;;;;;;;22.63;13.00;;;;;;;;;;5280652;27;19994;-67
2024/04/25 07:44:35;;;;;;;24.02;11.95;;;;;;;;;;5306866;27;20009;-67
2024/04/25 07:47:01;;;;;;;26.00;13.18;;;;;;;;;;5279085;27;20429;-67
2024/04/25 07:49:27;;;;;;;24.52;12.82;;;;;;;;;;5275131;27;20021;-66
2024/04/25 07:51:52;;;;;;;23.60;12.38;;;;;;;;;;5280449;27;19998;-67
2024/04/25 07:54:18;;;;;;;22.23;12.05;;;;;;;;;;5279239;27;19995;-67
2024/04/25 07:56:43;;;;;;;21.42;12.15;;;;;;;;;;5278752;27;20474;-67
2024/04/25 07:59:09;;;;;;;23.30;11.93;;;;;;;;;;5280480;27;20025;-67
2024/04/25 08:01:34;;;;;;;17.77;9.73;;;;;;;;;;5280377;27;20002;-67
2024/04/25 08:03:59;;;;;;;16.35;8.77;;;;;;;;;;5271996;27;20094;-67
2024/04/25 08:06:25;;;;;;;14.57;8.13;;;;;;;;;;5306566;27;19999;-67
2024/04/25 08:08:50;;;;;;;14.68;8.70;;;;;;;;;;5279989;27;19995;-67
2024/04/25 08:11:15;;;;;;;15.95;9.27;;;;;;;;;;5280414;27;20002;-67
2024/04/25 08:13:41;;;;;;;14.95;9.27;;;;;;;;;;5280206;27;20034;-67
2024/04/25 08:16:07;;;;;;;14.68;8.30;;;;;;;;;;5280159;27;20006;-67
2024/04/25 08:18:32;;;;;;;15.85;9.52;;;;;;;;;;5239808;27;20089;-67
2024/04/25 08:20:59;;;;;;;14.90;8.88;;;;;;;;;;5290255;27;20011;-67
2024/04/25 08:23:24;;;;;;;13.77;8.13;;;;;;;;;;5272810;27;19999;-67
2024/04/25 08:25:49;;;;;;;14.60;8.35;;;;;;;;;;5271377;27;20012;-67
2024/04/25 08:28:15;;;;;;;13.65;7.40;;;;;;;;;;5279309;27;20025;-67
2024/04/25 08:30:40;;;;;;;16.40;8.25;;;;;;;;;;5279918;27;20031;-67
2024/04/25 08:33:08;;;;;;;14.35;7.93;;;;;;;;;;5279673;27;20381;-67
2024/04/25 08:35:33;;;;;;;14.82;8.57;;;;;;;;;;5279841;27;20084;-67
2024/04/25 08:38:00;;;;;;;14.32;9.00;;;;;;;;;;5279050;27;20041;-67
2024/04/25 08:40:25;;;;;;;11.15;6.40;;;;;;;;;;5279690;27;20034;-67
2024/04/25 08:42:50;;;;;;;11.68;6.43;;;;;;;;;;5306657;26;19994;-67
2024/04/25 08:45:16;;;;;;;18.33;10.23;;;;;;;;;;5306736;27;20002;-67
2024/04/25 08:47:42;;;;;;;14.23;7.20;;;;;;;;;;5278336;27;20084;-67
2024/04/25 08:50:09;;;;;;;11.75;7.68;;;;;;;;;;5279220;27;20407;-67
2024/04/25 08:52:37;;;;;;;11.63;6.65;;;;;;;;;;5278012;27;20010;-67
2024/04/25 08:55:02;;;;;;;15.27;7.88;;;;;;;;;;5279327;27;20407;-67
2024/04/25 08:57:29;;;;;;;12.77;7.50;;;;;;;;;;5277755;27;20002;-67
2024/04/25 08:59:55;;;;;;;13.52;7.75;;;;;;;;;;5279770;27;20373;-67
2024/04/25 09:02:22;;;;;;;12.27;7.75;;;;;;;;;;5306402;26;19998;-67
2024/04/25 09:04:52;;;;;;;13.77;7.90;;;;;;;;;;5279666;27;19998;-67
2024/04/25 09:07:18;;;;;;;16.02;7.57;;;;;;;;;;5304746;27;19998;-67
2024/04/25 09:09:43;;;;;;;9.32;6.03;;;;;;;;;;5268934;27;20472;-67
2024/04/25 09:12:08;;;;;;;10.55;6.28;;;;;;;;;;5277216;27;20569;-67
2024/04/25 09:14:34;;;;;;;10.90;6.35;;;;;;;;;;5278900;27;19994;-68
2024/04/25 09:16:59;;;;;;;13.43;7.07;;;;;;;;;;5279348;27;20464;-67
2024/04/25 09:19:24;;;;;;;10.75;6.07;;;;;;;;;;5279483;27;20002;-67
2024/04/25 09:21:50;;;;;;;10.52;6.28;;;;;;;;;;5285436;27;20020;-67
2024/04/25 09:24:16;;;;;;;14.93;8.18;;;;;;;;;;5271858;27;19999;-67
2024/04/25 09:26:42;;;;;;;12.55;7.13;;;;;;;;;;5245085;27;20345;-67
2024/04/25 09:29:07;;;;;;;11.27;7.40;;;;;;;;;;5243990;27;19999;-68
2024/04/25 09:31:35;;;;;;;14.25;8.38;;;;;;;;;;5245535;27;19999;-68
2024/04/25 09:34:01;;;;;;;13.60;7.95;;;;;;;;;;5271664;27;19999;-68
2024/04/25 09:36:28;;;;;;;14.85;7.55;;;;;;;;;;5245516;27;20003;-68
2024/04/25 09:38:53;;;;;;;13.00;7.95;;;;;;;;;;5244829;27;20003;-68
2024/04/25 09:41:19;;;;;;;11.55;7.28;;;;;;;;;;5245411;27;20460;-68
2024/04/25 09:43:45;;;;;;;13.30;6.65;;;;;;;;;;5271907;27;19999;-68
2024/04/25 09:46:15;;;;;;;13.35;8.05;;;;;;;;;;5245517;27;20023;-68
2024/04/25 09:48:43;;;;;;;12.77;6.95;;;;;;;;;;5278453;27;19996;-68
2024/04/25 09:51:46;;;;;;;14.15;6.47;;;;;;;;;;5301818;27;20006;-68
2024/04/25 09:54:16;;;;;;;10.48;6.10;;;;;;;;;;5275087;27;20448;-67
2024/04/25 09:56:42;;;;;;;12.10;6.22;;;;;;;;;;5274038;27;19998;-67
2024/04/25 09:59:27;;;;;;;12.00;7.22;;;;;;;;;;5276705;27;19998;-67
2024/04/25 10:01:52;;;;;;;12.18;6.82;;;;;;;;;;5275150;27;20002;-67
2024/04/25 10:04:18;;;;;;;15.55;6.55;;;;;;;;;;5276267;27;20097;-67
2024/04/25 10:06:44;;;;;;;12.82;7.35;;;;;;;;;;5276658;27;19998;-67
2024/04/25 10:09:10;;;;;;;13.35;6.75;;;;;;;;;;5304882;27;19995;-67
2024/04/25 10:11:37;;;;;;;12.30;7.00;;;;;;;;;;5276661;27;20006;-67
2024/04/25 10:14:02;;;;;;;12.43;6.60;;;;;;;;;;5277949;27;19998;-67
2024/04/25 10:16:27;;;;;;;14.20;6.25;;;;;;;;;;5270417;27;20089;-67
2024/04/25 10:18:53;;;;;;;17.83;7.05;;;;;;;;;;5278639;27;20352;-67
2024/04/25 10:21:19;;;;;;;13.88;6.50;;;;;;;;;;5275810;27;20010;-68
2024/04/25 10:23:46;;;;;;;10.30;5.95;;;;;;;;;;5278546;27;20009;-67
2024/04/25 10:26:21;;;;;;;11.48;6.35;;;;;;;;;;5304494;27;20005;-67
2024/04/25 10:29:28;;;;;;;12.27;6.93;;;;;;;;;;5278424;27;20012;-68
2024/04/25 10:31:54;;;;;;;10.45;6.63;;;;;;;;;;5213203;27;20035;-68
2024/04/25 10:34:19;;;;;;;11.65;6.82;;;;;;;;;;5277933;27;19995;-67
2024/04/25 10:36:45;;;;;;;11.48;6.88;;;;;;;;;;5277102;27;20010;-67
2024/04/25 10:39:14;;;;;;;14.25;7.22;;;;;;;;;;5275919;27;20336;-67
2024/04/25 10:41:39;;;;;;;9.80;6.00;;;;;;;;;;5304473;27;20002;-68
2024/04/25 10:44:06;;;;;;;10.93;6.75;;;;;;;;;;5277567;27;19994;-67
2024/04/25 10:46:31;;;;;;;12.05;7.40;;;;;;;;;;5303174;27;20103;-67
2024/04/25 10:48:57;;;;;;;16.15;8.15;;;;;;;;;;5277540;27;20035;-67
2024/04/25 10:51:22;;;;;;;12.68;7.20;;;;;;;;;;5273659;27;20332;-67
2024/04/25 10:53:51;;;;;;;12.82;7.22;;;;;;;;;;5271571;27;19994;-67
2024/04/25 10:56:16;;;;;;;12.60;7.47;;;;;;;;;;5274818;27;20002;-68
2024/04/25 10:58:50;;;;;;;17.10;8.05;;;;;;;;;;5277701;27;20073;-69
2024/04/25 11:01:29;;;;;;;12.43;6.40;;;;;;;;;;5277599;27;20030;-68
2024/04/25 11:04:03;;;;;;;10.48;5.57;;;;;;;;;;5302993;27;20035;-68
2024/04/25 11:06:35;;;;;;;11.05;4.90;;;;;;;;;;5277254;27;20399;-67
2024/04/25 11:09:01;;;;;;;9.88;4.90;;;;;;;;;;5276082;27;20035;-68
2024/04/25 11:11:26;;;;;;;9.85;5.10;;;;;;;;;;5277137;27;19998;-67
2024/04/25 11:13:53;;;;;;;7.32;4.47;;;;;;;;;;5272289;27;20353;-67
2024/04/25 11:16:21;;;;;;;7.85;4.57;;;;;;;;;;5274391;27;20018;-68
2024/04/25 11:18:48;;;;;;;6.95;3.88;;;;;;;;;;5306057;27;20010;-68
2024/04/25 11:21:14;;;;;;;7.45;4.55;;;;;;;;;;5273826;27;20027;-68
2024/04/25 11:23:39;;;;;;;7.85;4.35;;;;;;;;;;5278848;27;20348;-68
2024/04/25 11:26:05;;;;;;;9.13;5.40;;;;;;;;;;5276630;27;20006;-68
2024/04/25 11:28:31;;;;;;;9.55;5.28;;;;;;;;;;5307286;27;20010;-67
2024/04/25 11:30:57;;;;;;;10.93;5.90;;;;;;;;;;5306669;27;20062;-68
2024/04/25 11:33:27;;;;;;;10.23;5.53;;;;;;;;;;5275499;27;20003;-68
2024/04/25 11:35:53;;;;;;;10.50;5.25;;;;;;;;;;5245129;27;20003;-68
2024/04/25 11:38:19;;;;;;;13.50;5.15;;;;;;;;;;5273067;27;20003;-68
2024/04/25 11:40:45;;;;;;;9.45;5.18;;;;;;;;;;5262605;27;20419;-66
2024/04/25 11:43:14;;;;;;;9.73;5.47;;;;;;;;;;5279290;27;20002;-68
2024/04/25 11:45:43;;;;;;;9.75;5.38;;;;;;;;;;5307109;27;20534;-68
2024/04/25 11:48:10;;;;;;;7.60;4.45;;;;;;;;;;5277358;27;20009;-67
2024/04/25 11:50:36;;;;;;;7.03;4.22;;;;;;;;;;5245706;27;20023;-68
2024/04/25 11:53:06;;;;;;;8.27;4.88;;;;;;;;;;5246479;27;20072;-68
2024/04/25 11:55:32;;;;;;;8.43;4.90;;;;;;;;;;5270059;27;20006;-68
2024/04/25 11:57:57;;;;;;;9.52;5.90;;;;;;;;;;5280260;27;20011;-68
2024/04/25 12:00:22;;;;;;;8.90;5.35;;;;;;;;;;5271544;27;20010;-68
2024/04/25 12:02:47;;;;;;;10.40;5.15;;;;;;;;;;5280395;27;19994;-68
2024/04/25 12:05:13;;;;;;;9.63;5.50;;;;;;;;;;5279992;27;20332;-68
2024/04/25 12:07:38;;;;;;;9.32;5.57;;;;;;;;;;5276574;27;20002;-67
2024/04/25 12:10:03;;;;;;;10.13;5.10;;;;;;;;;;5279843;27;20368;-68
2024/04/25 12:12:29;;;;;;;8.07;4.78;;;;;;;;;;5271413;27;19995;-67
2024/04/25 12:14:54;;;;;;;6.50;4.32;;;;;;;;;;5280040;27;20073;-68
2024/04/25 12:17:19;;;;;;;6.15;4.07;;;;;;;;;;5278548;27;20345;-67
2024/04/25 12:19:45;;;;;;;6.03;4.25;;;;;;;;;;5272750;27;20369;-68
2024/04/25 12:22:10;;;;;;;6.45;3.67;;;;;;;;;;5279622;27;20004;-68
2024/04/25 12:24:35;;;;;;;5.93;3.65;;;;;;;;;;5277140;27;20072;-67
2024/04/25 12:27:00;;;;;;;6.65;4.35;;;;;;;;;;5279458;27;20002;-68
2024/04/25 12:29:26;;;;;;;7.30;3.80;;;;;;;;;;5278376;27;20113;-68
2024/04/25 12:31:51;;;;;;;7.10;4.90;;;;;;;;;;5270804;27;20009;-68
2024/04/25 12:34:18;;;;;;;8.40;4.78;;;;;;;;;;5274509;27;20010;-68
2024/04/25 12:36:44;;;;;;;7.93;5.15;;;;;;;;;;5257238;27;20013;-68
2024/04/25 12:39:09;;;;;;;7.65;4.47;;;;;;;;;;5273119;27;19998;-68
2024/04/25 12:41:34;;;;;;;10.45;5.45;;;;;;;;;;5274993;27;20435;-68
2024/04/25 12:44:00;;;;;;;7.28;4.85;;;;;;;;;;5274524;27;19998;-68
2024/04/25 12:46:25;;;;;;;8.48;4.90;;;;;;;;;;5278165;27;20002;-67
2024/04/25 12:48:50;;;;;;;7.75;5.05;;;;;;;;;;5278145;27;19998;-68
2024/04/25 12:51:16;;;;;;;7.55;4.30;;;;;;;;;;5306535;27;19991;-68
2024/04/25 12:53:41;;;;;;;6.50;3.67;;;;;;;;;;5323765;21;20046;-68
2024/04/25 12:56:06;;;;;;;6.38;3.65;;;;;;;;;;5312601;27;20468;-68
2024/04/25 12:58:33;;;;;;;5.22;2.90;;;;;;;;;;5312643;26;19998;-68
2024/04/25 13:00:59;;;;;;;5.13;2.90;;;;;;;;;;5311142;27;20077;-68
2024/04/25 13:03:25;;;;;;;5.60;3.45;;;;;;;;;;5312409;26;20014;-68
2024/04/25 13:05:51;;;;;;;4.05;3.20;;;;;;;;;;5291758;26;20009;-68
2024/04/25 13:08:16;;;;;;;5.55;3.30;;;;;;;;;;5277667;27;19994;-68
2024/04/25 13:10:43;;;;;;;5.18;4.00;;;;;;;;;;5290964;27;20103;-68
2024/04/25 13:13:08;;;;;;;6.45;4.03;;;;;;;;;;5278159;27;20006;-68
2024/04/25 13:15:34;;;;;;;6.15;4.57;;;;;;;;;;5285266;27;20009;-68
2024/04/25 13:17:59;;;;;;;6.75;4.30;;;;;;;;;;5278506;27;19998;-67
2024/04/25 13:20:24;;;;;;;4.72;3.05;;;;;;;;;;5279267;27;20364;-68
2024/04/25 13:22:50;;;;;;;6.80;3.78;;;;;;;;;;5292042;26;19999;-68
2024/04/25 13:25:15;;;;;;;6.03;4.15;;;;;;;;;;5278138;27;20035;-68
2024/04/25 13:27:40;;;;;;;7.07;4.00;;;;;;;;;;5293578;27;20495;-68
2024/04/25 13:30:07;;;;;;;6.78;3.90;;;;;;;;;;5278922;26;20031;-68
2024/04/25 13:32:32;;;;;;;6.47;3.70;;;;;;;;;;5280540;27;20459;-68
2024/04/25 13:34:58;;;;;;;4.18;2.88;;;;;;;;;;5304712;26;20109;-68
2024/04/25 13:37:24;;;;;;;6.07;3.67;;;;;;;;;;5310089;26;20005;-68
2024/04/25 13:39:52;;;;;;;4.60;3.20;;;;;;;;;;5301386;26;20014;-68
2024/04/25 13:42:18;;;;;;;5.03;2.97;;;;;;;;;;5312094;26;20033;-68
2024/04/25 13:44:43;;;;;;;3.95;2.50;;;;;;;;;;5311793;26;19998;-68
2024/04/25 13:47:08;;;;;;;4.25;2.60;;;;;;;;;;5310234;27;20001;-68
2024/04/25 13:49:33;;;;;;;6.43;3.65;;;;;;;;;;5301529;26;20008;-68
2024/04/25 13:51:59;;;;;;;4.72;3.45;;;;;;;;;;5312400;26;20074;-68
2024/04/25 13:54:24;;;;;;;5.68;3.58;;;;;;;;;;5301135;26;20018;-68
2024/04/25 13:56:49;;;;;;;8.35;3.90;;;;;;;;;;5312007;26;20011;-68
2024/04/25 13:59:17;;;;;;;5.03;2.88;;;;;;;;;;5309785;26;20332;-67
2024/04/25 14:01:43;;;;;;;9.90;5.38;;;;;;;;;;5289642;26;20002;-68
2024/04/25 14:04:08;;;;;;;5.57;3.55;;;;;;;;;;5277668;27;20089;-68
2024/04/25 14:06:34;;;;;;;19.13;8.85;;;;;;;;;;5312668;26;20007;-68
2024/04/25 14:09:00;;;;;;;5.90;3.75;;;;;;;;;;5310996;27;19998;-67
2024/04/25 14:11:25;;;;;;;4.65;3.05;;;;;;;;;;5301847;27;20012;-68
2024/04/25 14:13:52;;;;;;;5.10;2.80;;;;;;;;;;5311356;26;20504;-68
2024/04/25 14:16:17;;;;;;;5.43;4.00;;;;;;;;;;5302260;26;20340;-68
2024/04/25 14:18:42;;;;;;;4.20;2.30;;;;;;;;;;5277787;27;20030;-68
2024/04/25 14:21:09;;;;;;;4.82;2.95;;;;;;;;;;5276607;27;20006;-68
2024/04/25 14:23:34;;;;;;;5.03;2.80;;;;;;;;;;5306116;27;20343;-68
2024/04/25 14:28:44;;;;;;;3.83;2.53;;;;;;;;;;5311954;27;20041;-68
2024/04/25 14:31:12;;;;;;;3.65;2.90;;;;;;;;;;5311459;26;20088;-67